createdAt,value
2018-08-23T00:00:32.232Z,22.22
2018-08-23T00:01:31.988Z,22.25
2018-08-23T00:02:32.504Z,22.26
2018-08-23T00:03:32.680Z,22.23
2018-08-23T00:04:32.247Z,22.35
2018-08-23T00:05:32.248Z,22.35
2018-08-23T00:06:32.502Z,22.35
2018-08-23T00:07:31.986Z,22.36
2018-08-23T00:08:32.555Z,22.35
2018-08-23T00:09:32.565Z,22.28
2018-08-23T00:10:32.550Z,22.28
2018-08-23T00:11:32.524Z,22.35
2018-08-23T00:12:32.264Z,22.32
2018-08-23T00:13:32.541Z,22.33
2018-08-23T00:14:32.512Z,22.26
2018-08-23T00:15:32.564Z,22.28
2018-08-23T00:16:32.531Z,22.28
2018-08-23T00:17:32.267Z,22.41
2018-08-23T00:18:32.279Z,22.25
2018-08-23T00:19:32.275Z,22.28
2018-08-23T00:20:32.544Z,22.28
2018-08-23T00:21:32.287Z,22.28
2018-08-23T00:22:32.531Z,22.26
2018-08-23T00:23:32.282Z,22.23
2018-08-23T00:24:32.277Z,22.26
2018-08-23T00:25:32.020Z,22.22
2018-08-23T00:26:32.529Z,22.26
2018-08-23T00:27:32.282Z,22.22
2018-08-23T00:28:32.282Z,22.2
2018-08-23T00:29:32.295Z,22.15
2018-08-23T00:30:32.589Z,22.15
2018-08-23T00:31:32.295Z,22.13
2018-08-23T00:32:32.548Z,22.1
2018-08-23T00:33:32.031Z,22.11
2018-08-23T00:34:32.295Z,22.08
2018-08-23T00:35:32.571Z,22.06
2018-08-23T00:36:32.036Z,22.04
2018-08-23T00:37:32.040Z,21.96
2018-08-23T00:38:32.304Z,22.07
2018-08-23T00:39:32.323Z,22.07
2018-08-23T00:40:32.562Z,21.99
2018-08-23T00:41:32.306Z,21.83
2018-08-23T00:42:32.567Z,22
2018-08-23T00:43:32.297Z,21.92
2018-08-23T00:44:32.055Z,21.82
2018-08-23T00:45:32.313Z,21.89
2018-08-23T00:46:32.307Z,21.93
2018-08-23T00:47:32.330Z,21.85
2018-08-23T00:48:32.570Z,21.88
2018-08-23T00:49:32.577Z,21.91
2018-08-23T00:50:32.577Z,21.85
2018-08-23T00:51:32.329Z,21.85
2018-08-23T00:52:32.075Z,21.85
2018-08-23T00:53:32.586Z,21.96
2018-08-23T00:54:32.582Z,21.88
2018-08-23T00:55:32.076Z,21.96
2018-08-23T00:56:32.321Z,21.91
2018-08-23T00:57:32.337Z,21.82
2018-08-23T00:58:32.580Z,21.95
2018-08-23T00:59:32.079Z,21.93
2018-08-23T01:00:32.587Z,21.92
2018-08-23T01:01:32.593Z,21.92
2018-08-23T01:02:32.597Z,21.82
2018-08-23T01:03:33.943Z,21.88
2018-08-23T01:04:32.597Z,21.88
2018-08-23T01:05:32.611Z,21.98
2018-08-23T01:06:32.359Z,21.96
2018-08-23T01:07:32.354Z,22.02
2018-08-23T01:08:32.344Z,21.99
2018-08-23T01:09:32.658Z,22
2018-08-23T01:10:32.609Z,21.99
2018-08-23T01:11:32.607Z,21.99
2018-08-23T01:12:32.359Z,21.99
2018-08-23T01:13:32.357Z,21.99
2018-08-23T01:14:32.380Z,21.98
2018-08-23T01:15:32.612Z,21.99
2018-08-23T01:16:32.721Z,21.95
2018-08-23T01:17:32.621Z,22.04
2018-08-23T01:18:32.379Z,22.04
2018-08-23T01:19:32.368Z,22.11
2018-08-23T01:20:32.625Z,22.11
2018-08-23T01:21:32.374Z,22.08
2018-08-23T01:22:32.636Z,22.11
2018-08-23T01:23:32.121Z,22.15
2018-08-23T01:24:32.637Z,22.13
2018-08-23T01:25:32.660Z,22.13
2018-08-23T01:26:32.383Z,22.08
2018-08-23T01:27:32.387Z,22.11
2018-08-23T01:28:32.139Z,22.15
2018-08-23T01:29:32.131Z,22.1
2018-08-23T01:30:32.392Z,22.1
2018-08-23T01:31:32.391Z,22.08
2018-08-23T01:32:32.398Z,22.1
2018-08-23T01:33:32.400Z,22.07
2018-08-23T01:34:32.403Z,22.04
2018-08-23T01:35:32.396Z,22.04
2018-08-23T01:36:32.152Z,21.96
2018-08-23T01:37:32.153Z,21.98
2018-08-23T01:38:32.670Z,21.92
2018-08-23T01:39:32.157Z,21.88
2018-08-23T01:40:32.423Z,21.95
2018-08-23T01:41:32.684Z,21.91
2018-08-23T01:42:32.685Z,21.83
2018-08-23T01:43:32.677Z,21.95
2018-08-23T01:44:32.684Z,22.07
2018-08-23T01:45:32.432Z,21.85
2018-08-23T01:46:32.432Z,21.92
2018-08-23T01:47:32.478Z,21.89
2018-08-23T01:48:32.734Z,21.91
2018-08-23T01:49:32.694Z,21.89
2018-08-23T01:50:32.696Z,21.83
2018-08-23T01:51:32.433Z,21.96
2018-08-23T01:52:32.697Z,21.89
2018-08-23T01:53:32.441Z,21.93
2018-08-23T01:54:32.192Z,21.8
2018-08-23T01:55:32.716Z,21.88
2018-08-23T01:56:32.193Z,21.89
2018-08-23T01:57:32.457Z,21.88
2018-08-23T01:58:32.719Z,21.75
2018-08-23T01:59:32.454Z,21.76
2018-08-23T02:00:32.729Z,21.6
2018-08-23T02:01:32.711Z,21.57
2018-08-23T02:02:32.464Z,21.57
2018-08-23T02:03:32.716Z,21.67
2018-08-23T02:04:32.620Z,21.55
2018-08-23T02:05:32.477Z,21.62
2018-08-23T02:06:32.737Z,21.72
2018-08-23T02:07:32.761Z,21.7
2018-08-23T02:08:32.741Z,21.75
2018-08-23T02:09:32.757Z,21.72
2018-08-23T02:10:32.747Z,21.76
2018-08-23T02:11:32.596Z,21.73
2018-08-23T02:12:32.486Z,21.7
2018-08-23T02:13:32.487Z,21.7
2018-08-23T02:14:32.494Z,21.73
2018-08-23T02:15:32.489Z,21.7
2018-08-23T02:16:32.241Z,21.73
2018-08-23T02:17:32.763Z,21.77
2018-08-23T02:18:32.751Z,21.77
2018-08-23T02:19:32.500Z,21.69
2018-08-23T02:20:32.774Z,21.77
2018-08-23T02:21:32.767Z,21.67
2018-08-23T02:22:32.756Z,21.61
2018-08-23T02:23:32.796Z,21.62
2018-08-23T02:24:32.507Z,21.6
2018-08-23T02:25:32.253Z,21.52
2018-08-23T02:26:32.518Z,21.57
2018-08-23T02:27:32.783Z,21.46
2018-08-23T02:28:32.517Z,21.43
2018-08-23T02:29:32.774Z,21.46
2018-08-23T02:30:32.783Z,21.51
2018-08-23T02:31:32.270Z,21.45
2018-08-23T02:32:32.813Z,21.42
2018-08-23T02:33:32.533Z,21.37
2018-08-23T02:34:34.390Z,21.39
2018-08-23T02:35:32.785Z,21.37
2018-08-23T02:36:32.797Z,21.48
2018-08-23T02:37:32.534Z,21.45
2018-08-23T02:38:32.536Z,21.51
2018-08-23T02:39:32.536Z,21.46
2018-08-23T02:40:32.801Z,21.46
2018-08-23T02:41:32.545Z,21.52
2018-08-23T02:42:32.792Z,21.48
2018-08-23T02:43:32.554Z,21.52
2018-08-23T02:44:32.595Z,21.52
2018-08-23T02:45:32.545Z,21.51
2018-08-23T02:46:32.818Z,21.52
2018-08-23T02:47:32.808Z,21.57
2018-08-23T02:48:32.816Z,21.58
2018-08-23T02:49:32.822Z,21.5
2018-08-23T02:50:32.824Z,21.57
2018-08-23T02:51:32.319Z,21.62
2018-08-23T02:52:32.328Z,21.58
2018-08-23T02:53:32.395Z,21.51
2018-08-23T02:54:32.579Z,21.6
2018-08-23T02:55:32.839Z,21.54
2018-08-23T02:56:32.597Z,21.48
2018-08-23T02:57:32.320Z,21.54
2018-08-23T02:58:32.824Z,21.55
2018-08-23T02:59:32.821Z,21.5
2018-08-23T03:00:32.644Z,21.58
2018-08-23T03:01:32.594Z,21.5
2018-08-23T03:02:32.923Z,21.46
2018-08-23T03:03:32.586Z,21.55
2018-08-23T03:04:33.090Z,21.51
2018-08-23T03:05:32.854Z,21.5
2018-08-23T03:06:32.342Z,21.43
2018-08-23T03:07:32.608Z,21.37
2018-08-23T03:08:32.849Z,21.29
2018-08-23T03:09:32.849Z,21.24
2018-08-23T03:10:32.587Z,21.22
2018-08-23T03:11:32.595Z,21.18
2018-08-23T03:12:32.596Z,21.14
2018-08-23T03:13:32.851Z,21.07
2018-08-23T03:14:32.603Z,21.02
2018-08-23T03:15:32.589Z,21.03
2018-08-23T03:16:32.597Z,20.99
2018-08-23T03:17:32.600Z,21.02
2018-08-23T03:18:32.613Z,21.06
2018-08-23T03:19:32.868Z,21.09
2018-08-23T03:20:32.867Z,21.09
2018-08-23T03:21:32.608Z,21.12
2018-08-23T03:22:32.611Z,21.12
2018-08-23T03:23:32.863Z,21.21
2018-08-23T03:24:32.880Z,21.2
2018-08-23T03:25:32.885Z,21.17
2018-08-23T03:26:32.898Z,21.18
2018-08-23T03:27:32.622Z,21.2
2018-08-23T03:28:32.876Z,21.2
2018-08-23T03:29:32.644Z,21.17
2018-08-23T03:30:32.645Z,21.14
2018-08-23T03:31:32.648Z,21.07
2018-08-23T03:32:32.906Z,21.12
2018-08-23T03:33:32.641Z,21.09
2018-08-23T03:34:33.690Z,21.11
2018-08-23T03:35:32.676Z,21.07
2018-08-23T03:36:32.897Z,21.06
2018-08-23T03:37:32.652Z,21.03
2018-08-23T03:38:32.655Z,21.02
2018-08-23T03:39:32.393Z,21.05
2018-08-23T03:40:32.903Z,21.07
2018-08-23T03:41:32.912Z,21.05
2018-08-23T03:42:32.646Z,21.09
2018-08-23T03:43:32.649Z,20.99
2018-08-23T03:44:32.937Z,21.03
2018-08-23T03:45:32.658Z,21.07
2018-08-23T03:46:32.402Z,21.03
2018-08-23T03:47:32.665Z,21.03
2018-08-23T03:48:32.664Z,20.99
2018-08-23T03:49:32.419Z,20.93
2018-08-23T03:50:32.929Z,20.93
2018-08-23T03:51:32.925Z,20.9
2018-08-23T03:52:33.348Z,20.85
2018-08-23T03:53:32.692Z,20.87
2018-08-23T03:54:32.419Z,20.82
2018-08-23T03:55:32.922Z,20.8
2018-08-23T03:56:32.681Z,20.7
2018-08-23T03:57:32.924Z,20.7
2018-08-23T03:58:32.924Z,20.7
2018-08-23T03:59:32.924Z,20.67
2018-08-23T04:00:32.938Z,20.72
2018-08-23T04:01:32.942Z,20.63
2018-08-23T04:02:32.693Z,20.66
2018-08-23T04:03:32.934Z,20.74
2018-08-23T04:04:32.550Z,20.74
2018-08-23T04:05:33.046Z,20.69
2018-08-23T04:06:32.506Z,20.7
2018-08-23T04:07:32.738Z,20.78
2018-08-23T04:08:33.073Z,20.8
2018-08-23T04:09:33.077Z,20.92
2018-08-23T04:10:33.145Z,20.84
2018-08-23T04:11:32.704Z,20.9
2018-08-23T04:12:32.696Z,20.82
2018-08-23T04:13:32.963Z,20.9
2018-08-23T04:14:32.969Z,20.93
2018-08-23T04:15:33.358Z,20.88
2018-08-23T04:16:32.977Z,20.95
2018-08-23T04:17:32.452Z,20.88
2018-08-23T04:18:32.991Z,20.85
2018-08-23T04:19:32.732Z,20.87
2018-08-23T04:20:32.998Z,20.87
2018-08-23T04:21:32.743Z,20.9
2018-08-23T04:22:32.732Z,20.88
2018-08-23T04:23:32.993Z,20.87
2018-08-23T04:24:33.011Z,20.88
2018-08-23T04:25:32.717Z,20.87
2018-08-23T04:26:32.727Z,20.88
2018-08-23T04:27:33.017Z,20.87
2018-08-23T04:28:32.988Z,20.88
2018-08-23T04:29:33.024Z,21.02
2018-08-23T04:30:32.993Z,21.03
2018-08-23T04:31:33.007Z,21.11
2018-08-23T04:32:33.136Z,21.21
2018-08-23T04:33:32.857Z,21.21
2018-08-23T04:34:33.029Z,21.2
2018-08-23T04:35:33.907Z,21.2
2018-08-23T04:36:32.768Z,21.14
2018-08-23T04:37:32.746Z,21.17
2018-08-23T04:38:33.001Z,21.12
2018-08-23T04:39:33.000Z,21.2
2018-08-23T04:40:32.999Z,21.2
2018-08-23T04:41:32.747Z,21.15
2018-08-23T04:42:33.007Z,21.18
2018-08-23T04:43:33.010Z,21.11
2018-08-23T04:44:33.003Z,21.03
2018-08-23T04:45:32.492Z,21.02
2018-08-23T04:46:32.763Z,21.09
2018-08-23T04:47:32.752Z,21.03
2018-08-23T04:48:32.778Z,21.05
2018-08-23T04:49:32.498Z,21.06
2018-08-23T04:50:33.016Z,21.02
2018-08-23T04:51:33.061Z,21.11
2018-08-23T04:52:32.762Z,21.12
2018-08-23T04:53:32.762Z,21.06
2018-08-23T04:54:32.770Z,20.88
2018-08-23T04:55:33.022Z,20.88
2018-08-23T04:56:33.028Z,20.74
2018-08-23T04:57:33.021Z,20.66
2018-08-23T04:58:33.037Z,20.69
2018-08-23T04:59:32.788Z,20.75
2018-08-23T05:00:32.781Z,20.77
2018-08-23T05:01:33.035Z,20.77
2018-08-23T05:02:32.778Z,20.75
2018-08-23T05:03:32.775Z,20.72
2018-08-23T05:04:33.112Z,20.85
2018-08-23T05:05:33.242Z,20.81
2018-08-23T05:06:33.123Z,20.74
2018-08-23T05:07:33.033Z,20.72
2018-08-23T05:08:33.064Z,20.87
2018-08-23T05:09:33.074Z,20.84
2018-08-23T05:10:33.074Z,20.87
2018-08-23T05:11:33.036Z,20.99
2018-08-23T05:12:33.055Z,21.14
2018-08-23T05:13:33.080Z,21.3
2018-08-23T05:14:32.813Z,21.46
2018-08-23T05:15:32.785Z,21.6
2018-08-23T05:16:32.828Z,21.83
2018-08-23T05:17:33.062Z,22.11
2018-08-23T05:18:32.866Z,22.26
2018-08-23T05:19:33.065Z,22.57
2018-08-23T05:20:33.068Z,22.66
2018-08-23T05:21:32.804Z,22.83
2018-08-23T05:22:33.072Z,22.94
2018-08-23T05:23:33.069Z,22.99
2018-08-23T05:24:32.549Z,23.13
2018-08-23T05:25:33.626Z,23.05
2018-08-23T05:26:32.830Z,22.87
2018-08-23T05:27:33.078Z,22.85
2018-08-23T05:28:33.077Z,22.84
2018-08-23T05:29:33.105Z,22.84
2018-08-23T05:30:33.076Z,22.76
2018-08-23T05:31:33.083Z,22.68
2018-08-23T05:32:33.096Z,22.6
2018-08-23T05:33:32.826Z,22.44
2018-08-23T05:34:33.104Z,22.32
2018-08-23T05:35:34.166Z,22.29
2018-08-23T05:36:33.091Z,22.23
2018-08-23T05:37:33.097Z,22.28
2018-08-23T05:38:33.111Z,22.33
2018-08-23T05:39:32.589Z,22.36
2018-08-23T05:40:33.141Z,22.35
2018-08-23T05:41:32.850Z,22.36
2018-08-23T05:42:33.126Z,22.36
2018-08-23T05:43:32.876Z,22.35
2018-08-23T05:44:33.117Z,22.3
2018-08-23T05:45:33.142Z,22.53
2018-08-23T05:46:33.124Z,22.51
2018-08-23T05:47:32.938Z,22.65
2018-08-23T05:48:33.122Z,22.66
2018-08-23T05:49:32.876Z,22.7
2018-08-23T05:50:33.136Z,22.73
2018-08-23T05:51:32.883Z,22.76
2018-08-23T05:52:32.939Z,22.73
2018-08-23T05:53:33.139Z,22.83
2018-08-23T05:54:32.897Z,22.85
2018-08-23T05:55:33.047Z,22.75
2018-08-23T05:56:32.670Z,22.8
2018-08-23T05:57:32.908Z,22.78
2018-08-23T05:58:32.912Z,22.78
2018-08-23T05:59:33.162Z,22.75
2018-08-23T06:00:33.764Z,22.66
2018-08-23T06:01:33.219Z,22.66
2018-08-23T06:02:32.915Z,22.63
2018-08-23T06:03:33.205Z,22.62
2018-08-23T06:04:32.912Z,22.54
2018-08-23T06:05:32.784Z,22.57
2018-08-23T06:06:32.943Z,22.54
2018-08-23T06:07:33.212Z,22.62
2018-08-23T06:08:32.926Z,22.6
2018-08-23T06:09:33.186Z,22.68
2018-08-23T06:10:32.687Z,22.69
2018-08-23T06:11:32.947Z,22.7
2018-08-23T06:12:33.194Z,22.68
2018-08-23T06:13:32.687Z,22.78
2018-08-23T06:14:32.946Z,22.76
2018-08-23T06:15:33.172Z,22.81
2018-08-23T06:16:33.210Z,22.83
2018-08-23T06:17:33.214Z,22.81
2018-08-23T06:18:33.218Z,22.78
2018-08-23T06:19:33.240Z,22.84
2018-08-23T06:20:32.718Z,22.76
2018-08-23T06:21:33.245Z,22.8
2018-08-23T06:22:33.251Z,22.78
2018-08-23T06:23:32.722Z,22.83
2018-08-23T06:24:32.983Z,22.87
2018-08-23T06:25:33.254Z,22.88
2018-08-23T06:26:32.983Z,22.98
2018-08-23T06:27:33.578Z,22.98
2018-08-23T06:28:32.988Z,22.93
2018-08-23T06:29:33.002Z,22.85
2018-08-23T06:30:33.257Z,22.78
2018-08-23T06:31:33.283Z,22.72
2018-08-23T06:32:32.742Z,22.65
2018-08-23T06:33:34.084Z,22.55
2018-08-23T06:34:32.750Z,22.59
2018-08-23T06:35:32.775Z,22.6
2018-08-23T06:36:34.771Z,22.41
2018-08-23T06:37:33.345Z,22.32
2018-08-23T06:38:33.339Z,22.29
2018-08-23T06:39:33.016Z,22.32
2018-08-23T06:40:33.046Z,22.3
2018-08-23T06:41:32.782Z,22.39
2018-08-23T06:42:33.044Z,22.39
2018-08-23T06:43:33.305Z,22.36
2018-08-23T06:44:33.587Z,22.41
2018-08-23T06:45:33.043Z,22.39
2018-08-23T06:46:33.297Z,22.48
2018-08-23T06:47:33.314Z,22.41
2018-08-23T06:48:33.301Z,22.41
2018-08-23T06:49:33.322Z,22.28
2018-08-23T06:50:32.788Z,22.29
2018-08-23T06:51:33.306Z,22.29
2018-08-23T06:52:33.101Z,22.29
2018-08-23T06:53:33.320Z,22.45
2018-08-23T06:54:33.354Z,22.53
2018-08-23T06:55:33.308Z,22.48
2018-08-23T06:56:33.074Z,22.62
2018-08-23T06:57:33.353Z,22.72
2018-08-23T06:58:33.091Z,22.85
2018-08-23T06:59:32.834Z,22.83
2018-08-23T07:00:33.334Z,23
2018-08-23T07:01:33.369Z,23.15
2018-08-23T07:02:33.363Z,23.1
2018-08-23T07:03:33.334Z,23.2
2018-08-23T07:04:33.088Z,23.17
2018-08-23T07:05:33.268Z,23.24
2018-08-23T07:06:33.435Z,23.28
2018-08-23T07:07:33.387Z,23.32
2018-08-23T07:08:33.114Z,23.34
2018-08-23T07:09:33.362Z,23.34
2018-08-23T07:10:33.177Z,23.39
2018-08-23T07:11:32.858Z,23.4
2018-08-23T07:12:33.356Z,23.48
2018-08-23T07:13:33.365Z,23.54
2018-08-23T07:14:33.167Z,23.55
2018-08-23T07:15:34.949Z,23.56
2018-08-23T07:16:33.387Z,23.61
2018-08-23T07:17:33.274Z,23.69
2018-08-23T07:18:33.135Z,23.68
2018-08-23T07:19:33.153Z,23.71
2018-08-23T07:20:33.390Z,23.77
2018-08-23T07:21:33.390Z,23.78
2018-08-23T07:22:33.491Z,23.83
2018-08-23T07:23:33.153Z,23.91
2018-08-23T07:24:32.889Z,23.81
2018-08-23T07:25:33.413Z,23.93
2018-08-23T07:26:33.423Z,24.02
2018-08-23T07:27:33.407Z,24.03
2018-08-23T07:28:33.155Z,24.14
2018-08-23T07:29:32.899Z,24.08
2018-08-23T07:30:33.170Z,24.08
2018-08-23T07:31:33.176Z,24.16
2018-08-23T07:32:33.176Z,24.17
2018-08-23T07:33:33.179Z,24.26
2018-08-23T07:34:33.188Z,24.38
2018-08-23T07:35:33.181Z,24.43
2018-08-23T07:36:33.687Z,24.43
2018-08-23T07:37:33.182Z,24.43
2018-08-23T07:38:33.481Z,24.53
2018-08-23T07:39:33.451Z,24.48
2018-08-23T07:40:32.930Z,24.55
2018-08-23T07:41:33.212Z,24.4
2018-08-23T07:42:33.471Z,24.35
2018-08-23T07:43:33.207Z,24.36
2018-08-23T07:44:32.958Z,24.35
2018-08-23T07:45:33.491Z,24.32
2018-08-23T07:46:32.971Z,24.42
2018-08-23T07:47:33.413Z,24.43
2018-08-23T07:48:33.586Z,24.53
2018-08-23T07:49:33.516Z,24.5
2018-08-23T07:50:33.535Z,24.58
2018-08-23T07:51:33.572Z,24.5
2018-08-23T07:52:33.451Z,24.58
2018-08-23T07:53:33.569Z,24.68
2018-08-23T07:54:33.496Z,24.69
2018-08-23T07:55:33.542Z,24.69
2018-08-23T07:56:33.253Z,24.78
2018-08-23T07:57:33.518Z,24.84
2018-08-23T07:58:33.538Z,24.8
2018-08-23T07:59:33.263Z,24.76
2018-08-23T08:00:33.548Z,24.69
2018-08-23T08:01:33.563Z,24.69
2018-08-23T08:02:33.278Z,24.7
2018-08-23T08:03:33.289Z,24.61
2018-08-23T08:04:33.293Z,24.58
2018-08-23T08:05:33.550Z,24.65
2018-08-23T08:06:35.153Z,24.65
2018-08-23T08:07:33.326Z,24.73
2018-08-23T08:08:33.300Z,24.69
2018-08-23T08:09:33.310Z,24.73
2018-08-23T08:10:33.048Z,24.57
2018-08-23T08:11:33.060Z,24.53
2018-08-23T08:12:33.574Z,24.53
2018-08-23T08:13:33.322Z,24.55
2018-08-23T08:14:33.321Z,24.63
2018-08-23T08:15:33.694Z,24.68
2018-08-23T08:16:33.609Z,24.63
2018-08-23T08:17:33.612Z,24.8
2018-08-23T08:18:33.609Z,24.81
2018-08-23T08:19:33.370Z,24.76
2018-08-23T08:20:33.611Z,24.8
2018-08-23T08:21:33.729Z,24.85
2018-08-23T08:22:33.619Z,24.86
2018-08-23T08:23:33.101Z,24.8
2018-08-23T08:24:33.361Z,24.84
2018-08-23T08:25:33.380Z,24.85
2018-08-23T08:26:33.365Z,24.8
2018-08-23T08:27:33.133Z,24.8
2018-08-23T08:28:33.380Z,24.81
2018-08-23T08:29:33.391Z,24.86
2018-08-23T08:30:33.667Z,25.03
2018-08-23T08:31:33.147Z,24.96
2018-08-23T08:32:33.661Z,25.07
2018-08-23T08:33:33.400Z,25.14
2018-08-23T08:34:33.412Z,25.32
2018-08-23T08:35:33.666Z,25.4
2018-08-23T08:36:33.155Z,25.44
2018-08-23T08:37:33.173Z,25.47
2018-08-23T08:38:33.689Z,25.44
2018-08-23T08:39:33.432Z,25.54
2018-08-23T08:40:33.445Z,25.55
2018-08-23T08:41:33.167Z,25.48
2018-08-23T08:42:33.698Z,25.55
2018-08-23T08:43:33.713Z,25.58
2018-08-23T08:44:33.445Z,25.65
2018-08-23T08:45:33.191Z,25.77
2018-08-23T08:46:33.776Z,25.84
2018-08-23T08:47:33.712Z,25.99
2018-08-23T08:48:33.732Z,26.07
2018-08-23T08:49:33.760Z,26.19
2018-08-23T08:50:33.567Z,26.22
2018-08-23T08:51:33.468Z,26.07
2018-08-23T08:52:33.739Z,25.96
2018-08-23T08:53:33.744Z,25.95
2018-08-23T08:54:33.804Z,25.95
2018-08-23T08:55:33.747Z,25.93
2018-08-23T08:56:33.778Z,25.83
2018-08-23T08:57:33.536Z,25.88
2018-08-23T08:58:33.256Z,25.95
2018-08-23T08:59:33.842Z,25.91
2018-08-23T09:00:33.764Z,25.96
2018-08-23T09:01:33.781Z,26.02
2018-08-23T09:02:33.786Z,26.06
2018-08-23T09:03:33.520Z,26.16
2018-08-23T09:04:33.530Z,26.25
2018-08-23T09:05:33.532Z,26.33
2018-08-23T09:06:33.538Z,26.4
2018-08-23T09:07:33.695Z,26.44
2018-08-23T09:08:33.586Z,26.52
2018-08-23T09:09:33.569Z,26.56
2018-08-23T09:10:33.324Z,26.55
2018-08-23T09:11:33.621Z,26.6
2018-08-23T09:12:33.578Z,26.59
2018-08-23T09:13:33.600Z,26.48
2018-08-23T09:14:33.856Z,26.45
2018-08-23T09:15:33.322Z,26.43
2018-08-23T09:16:33.620Z,26.51
2018-08-23T09:17:33.340Z,26.53
2018-08-23T09:18:33.917Z,26.78
2018-08-23T09:19:33.600Z,27
2018-08-23T09:20:33.824Z,27.11
2018-08-23T09:21:33.933Z,27.2
2018-08-23T09:22:33.655Z,27.45
2018-08-23T09:23:33.681Z,27.63
2018-08-23T09:24:33.978Z,27.9
2018-08-23T09:25:33.398Z,28.15
2018-08-23T09:26:33.771Z,28.33
2018-08-23T09:27:33.725Z,28.6
2018-08-23T09:28:33.935Z,28.62
2018-08-23T09:29:33.739Z,28.85
2018-08-23T09:30:34.109Z,28.94
2018-08-23T09:31:33.396Z,29.02
2018-08-23T09:32:33.675Z,29.01
2018-08-23T09:33:33.416Z,29.23
2018-08-23T09:34:33.672Z,29.36
2018-08-23T09:35:33.712Z,29.42
2018-08-23T09:36:33.933Z,29.53
2018-08-23T09:37:35.553Z,29.53
2018-08-23T09:38:33.724Z,29.68
2018-08-23T09:39:33.957Z,29.76
2018-08-23T09:40:33.718Z,29.88
2018-08-23T09:41:33.732Z,29.84
2018-08-23T09:42:34.025Z,29.81
2018-08-23T09:43:34.175Z,29.66
2018-08-23T09:44:33.768Z,29.5
2018-08-23T09:45:33.761Z,29.53
2018-08-23T09:46:34.012Z,29.47
2018-08-23T09:47:33.788Z,29.49
2018-08-23T09:48:33.762Z,29.59
2018-08-23T09:49:33.759Z,29.56
2018-08-23T09:50:34.079Z,29.61
2018-08-23T09:51:34.033Z,29.54
2018-08-23T09:52:34.037Z,29.5
2018-08-23T09:53:33.841Z,29.49
2018-08-23T09:54:33.828Z,29.49
2018-08-23T09:55:33.839Z,29.5
2018-08-23T09:56:34.361Z,29.47
2018-08-23T09:57:33.859Z,29.41
2018-08-23T09:58:34.074Z,29.39
2018-08-23T09:59:34.096Z,29.39
2018-08-23T10:00:33.857Z,29.16
2018-08-23T10:01:33.952Z,29.05
2018-08-23T10:02:33.854Z,28.97
2018-08-23T10:03:34.115Z,28.98
2018-08-23T10:04:33.678Z,29.07
2018-08-23T10:05:33.921Z,29.04
2018-08-23T10:06:33.784Z,29.1
2018-08-23T10:07:36.039Z,29.12
2018-08-23T10:08:33.870Z,29.07
2018-08-23T10:09:33.891Z,29.12
2018-08-23T10:10:34.147Z,29.05
2018-08-23T10:11:34.562Z,28.96
2018-08-23T10:12:34.193Z,28.85
2018-08-23T10:13:33.668Z,28.86
2018-08-23T10:14:33.922Z,28.78
2018-08-23T10:15:33.923Z,28.88
2018-08-23T10:16:33.955Z,28.91
2018-08-23T10:17:34.325Z,28.88
2018-08-23T10:18:33.989Z,28.74
2018-08-23T10:19:34.215Z,28.7
2018-08-23T10:20:33.730Z,28.67
2018-08-23T10:21:33.752Z,28.74
2018-08-23T10:22:33.961Z,28.85
2018-08-23T10:23:34.017Z,28.81
2018-08-23T10:24:34.009Z,28.82
2018-08-23T10:25:33.783Z,28.97
2018-08-23T10:26:34.182Z,29.1
2018-08-23T10:27:34.247Z,29.29
2018-08-23T10:28:33.756Z,29.36
2018-08-23T10:29:33.748Z,29.5
2018-08-23T10:30:34.297Z,29.68
2018-08-23T10:31:34.298Z,29.73
2018-08-23T10:32:34.021Z,29.91
2018-08-23T10:33:34.028Z,29.98
2018-08-23T10:34:34.288Z,30.05
2018-08-23T10:35:34.035Z,30.15
2018-08-23T10:36:34.054Z,30.15
2018-08-23T10:37:34.298Z,30.15
2018-08-23T10:38:34.354Z,30.13
2018-08-23T10:39:34.318Z,30.13
2018-08-23T10:40:34.164Z,30.06
2018-08-23T10:41:34.098Z,30.1
2018-08-23T10:42:33.974Z,30.13
2018-08-23T10:43:34.222Z,30
2018-08-23T10:44:34.191Z,30.03
2018-08-23T10:45:34.354Z,29.95
2018-08-23T10:46:34.399Z,29.95
2018-08-23T10:47:34.359Z,29.97
2018-08-23T10:48:34.119Z,29.88
2018-08-23T10:49:34.370Z,29.82
2018-08-23T10:50:34.222Z,29.79
2018-08-23T10:51:34.140Z,29.84
2018-08-23T10:52:34.142Z,29.91
2018-08-23T10:53:34.395Z,29.9
2018-08-23T10:54:34.408Z,29.94
2018-08-23T10:55:34.401Z,29.95
2018-08-23T10:56:34.154Z,30
2018-08-23T10:57:34.152Z,30.02
2018-08-23T10:58:34.410Z,29.97
2018-08-23T10:59:34.418Z,29.98
2018-08-23T11:00:34.241Z,29.98
2018-08-23T11:01:34.229Z,29.94
2018-08-23T11:02:33.970Z,29.84
2018-08-23T11:03:34.235Z,29.87
2018-08-23T11:04:33.951Z,29.73
2018-08-23T11:05:34.498Z,29.86
2018-08-23T11:06:34.225Z,29.81
2018-08-23T11:07:34.229Z,29.76
2018-08-23T11:08:35.442Z,29.75
2018-08-23T11:09:34.536Z,29.81
2018-08-23T11:10:34.501Z,29.84
2018-08-23T11:11:33.984Z,29.82
2018-08-23T11:12:34.242Z,29.76
2018-08-23T11:13:34.567Z,29.78
2018-08-23T11:14:34.258Z,29.88
2018-08-23T11:15:34.292Z,29.87
2018-08-23T11:16:34.065Z,29.82
2018-08-23T11:17:34.547Z,29.79
2018-08-23T11:18:34.048Z,29.79
2018-08-23T11:19:34.023Z,29.75
2018-08-23T11:20:34.555Z,29.72
2018-08-23T11:21:34.041Z,29.65
2018-08-23T11:22:34.554Z,29.72
2018-08-23T11:23:34.582Z,29.78
2018-08-23T11:24:34.315Z,29.75
2018-08-23T11:25:34.329Z,29.87
2018-08-23T11:26:34.320Z,29.95
2018-08-23T11:27:34.337Z,30.06
2018-08-23T11:28:34.602Z,30.12
2018-08-23T11:29:34.859Z,30.27
2018-08-23T11:30:34.601Z,30.28
2018-08-23T11:31:34.639Z,30.28
2018-08-23T11:32:34.348Z,30.15
2018-08-23T11:33:34.627Z,30.16
2018-08-23T11:34:34.372Z,30.08
2018-08-23T11:35:34.653Z,30.08
2018-08-23T11:36:34.383Z,30.08
2018-08-23T11:37:34.385Z,30.16
2018-08-23T11:38:34.399Z,30.06
2018-08-23T11:39:34.402Z,30.06
2018-08-23T11:40:34.145Z,29.97
2018-08-23T11:41:34.420Z,30.03
2018-08-23T11:42:34.763Z,29.91
2018-08-23T11:43:34.739Z,29.84
2018-08-23T11:44:34.684Z,29.87
2018-08-23T11:45:34.557Z,29.81
2018-08-23T11:46:34.740Z,29.76
2018-08-23T11:47:34.204Z,29.86
2018-08-23T11:48:34.465Z,29.84
2018-08-23T11:49:34.462Z,29.9
2018-08-23T11:50:34.766Z,29.91
2018-08-23T11:51:34.488Z,29.98
2018-08-23T11:52:34.465Z,29.98
2018-08-23T11:53:35.764Z,30.18
2018-08-23T11:54:34.508Z,30.13
2018-08-23T11:55:34.495Z,30.16
2018-08-23T11:56:34.280Z,30.27
2018-08-23T11:57:34.774Z,30.44
2018-08-23T11:58:34.536Z,30.44
2018-08-23T11:59:34.777Z,30.47
2018-08-23T12:00:34.521Z,30.54
2018-08-23T12:01:34.535Z,30.54
2018-08-23T12:02:34.527Z,30.5
2018-08-23T12:03:34.531Z,30.46
2018-08-23T12:04:34.275Z,30.4
2018-08-23T12:05:34.298Z,30.37
2018-08-23T12:06:35.047Z,30.44
2018-08-23T12:07:34.829Z,30.47
2018-08-23T12:08:35.257Z,30.43
2018-08-23T12:09:34.813Z,30.43
2018-08-23T12:10:34.578Z,30.32
2018-08-23T12:11:34.579Z,30.32
2018-08-23T12:12:34.895Z,30.39
2018-08-23T12:13:34.852Z,30.3
2018-08-23T12:14:34.857Z,30.25
2018-08-23T12:15:34.986Z,30.35
2018-08-23T12:16:34.347Z,30.18
2018-08-23T12:17:34.875Z,30.13
2018-08-23T12:18:34.617Z,30.15
2018-08-23T12:19:34.878Z,30.15
2018-08-23T12:20:34.889Z,30.1
2018-08-23T12:21:34.634Z,30.03
2018-08-23T12:22:34.631Z,29.98
2018-08-23T12:23:34.902Z,29.87
2018-08-23T12:24:34.909Z,29.93
2018-08-23T12:25:35.018Z,29.88
2018-08-23T12:26:34.730Z,29.84
2018-08-23T12:27:34.718Z,29.88
2018-08-23T12:28:34.416Z,29.68
2018-08-23T12:29:34.686Z,29.59
2018-08-23T12:30:34.700Z,29.39
2018-08-23T12:31:35.012Z,29.1
2018-08-23T12:32:34.697Z,28.75
2018-08-23T12:33:34.701Z,28.44
2018-08-23T12:34:34.710Z,28.07
2018-08-23T12:35:34.982Z,27.77
2018-08-23T12:36:34.473Z,27.37
2018-08-23T12:37:34.865Z,27.07
2018-08-23T12:38:34.991Z,26.68
2018-08-23T12:39:34.739Z,26.16
2018-08-23T12:40:35.000Z,25.65
2018-08-23T12:41:35.009Z,25.29
2018-08-23T12:42:34.818Z,25.04
2018-08-23T12:43:35.341Z,24.69
2018-08-23T12:44:35.146Z,24.53
2018-08-23T12:45:34.550Z,24.45
2018-08-23T12:46:34.986Z,24.23
2018-08-23T12:47:34.808Z,24.21
2018-08-23T12:48:35.063Z,24.14
2018-08-23T12:49:35.065Z,24.05
2018-08-23T12:50:34.818Z,23.84
2018-08-23T12:51:34.781Z,23.68
2018-08-23T12:52:34.533Z,23.71
2018-08-23T12:53:34.810Z,23.66
2018-08-23T12:54:35.066Z,23.59
2018-08-23T12:55:35.050Z,23.47